Iris Victoria — V7TS8 — position and weather

sailwx.info

Track history (hours):
 
Tides and Currents Weather Stations Pressure Air Temp Water Temp Dewpoint Dewpoint Depression Visibility Wind Speed Wind Dir Waves Ship Positions

Iris Victoria

Last reported at 2017-Oct-20 04:31 UTC. Time now 2017-Nov-22 12:59 UTC.
Position N 36°01' E 015°33'.
Warning: this ship's position is 33 days out of date.

Length 228 m; draft 13.3 m.

Type: Tanker. MMSI: 538003876.

Date/timePositionNaut miles runAvg speedWind from/ knotsBaromVisibWave heightAir tempDewpointWater temp
2017-Oct-20 04:31N 36°01' E 015°33'010.1
2017-Oct-20 04:30N 36°02' E 015°33'510.6
2017-Oct-20 04:00N 36°03' E 015°26'510.8
2017-Oct-20 03:30N 36°04' E 015°20'610.9
2017-Oct-20 02:55N 36°05' E 015°12'1911.0
2017-Oct-20 01:13N 36°10' E 014°50'210.9
2017-Oct-20 01:00N 36°11' E 014°47'510.8
2017-Oct-20 00:30N 36°12' E 014°40'510.9
2017-Oct-20 00:00N 36°13' E 014°34'610.9
2017-Oct-19 23:30N 36°15' E 014°27'510.9
2017-Oct-19 23:00N 36°16' E 014°21'610.8
2017-Oct-19 22:29N 36°17' E 014°14'510.7
2017-Oct-19 21:59N 36°19' E 014°07'510.7
2017-Oct-19 21:30N 36°20' E 014°01'510.6
2017-Oct-19 21:00N 36°22' E 013°55'510.6
2017-Oct-19 20:30N 36°24' E 013°49'510.6
2017-Oct-19 19:59N 36°26' E 013°43'610.4
2017-Oct-19 19:28N 36°28' E 013°37'25512.1
2017-Oct-18 22:18N 37°40' E 008°30'413.1
2017-Oct-18 22:00N 37°40' E 008°25'812.9
2017-Oct-18 21:21N 37°40' E 008°14'712.9
2017-Oct-18 20:46N 37°40' E 008°05'313.0
2017-Oct-18 20:30N 37°40' E 008°01'15712.9
2017-Oct-18 08:23N 37°34' E 004°43'1812.9
2017-Oct-18 07:01N 37°33' E 004°21'013.2
2017-Oct-18 07:00N 37°33' E 004°21'713.2
2017-Oct-18 06:29N 37°32' E 004°12'713.2
2017-Oct-18 06:00N 37°32' E 004°04'713.2
2017-Oct-18 05:29N 37°31' E 003°56'613.1
2017-Oct-18 05:00N 37°31' E 003°48'713.3
2017-Oct-18 04:30N 37°31' E 003°39'3513.1
2017-Oct-18 01:48N 37°30' E 002°55'713.2
2017-Oct-18 01:18N 37°30' E 002°46'413.1
2017-Oct-18 01:00N 37°30' E 002°42'713.1
2017-Oct-18 00:30N 37°28' E 002°34'612.8
2017-Oct-18 00:00N 37°26' E 002°26'1312.8
2017-Oct-17 23:01N 37°21' E 002°11'012.8
2017-Oct-17 23:00N 37°21' E 002°11'1912.9
2017-Oct-17 21:33N 37°15' E 001°48'113.2
2017-Oct-17 21:30N 37°15' E 001°48'713.2
2017-Oct-17 21:00N 37°13' E 001°40'713.2
2017-Oct-17 20:30N 37°11' E 001°32'713.0
2017-Oct-17 20:00N 37°09' E 001°24'812.8
2017-Oct-17 19:25N 37°06' E 001°15'512.7
2017-Oct-17 19:00N 37°05' E 001°09'812.8
2017-Oct-17 18:24N 37°02' E 001°00'912.8
2017-Oct-17 17:41N 36°59' E 000°49'212.7
2017-Oct-17 17:30N 36°59' E 000°46'2112.9
2017-Oct-17 15:54N 36°53' E 000°21'513.2
2017-Oct-17 15:29N 36°52' E 000°15'813.2
2017-Oct-17 14:54N 36°48' E 000°06'25712.9
2017-Oct-16 18:59N 36°00' W 005°07'612.2
2017-Oct-16 18:30N 36°01' W 005°14'611.9
2017-Oct-16 18:00N 36°03' W 005°21'3 7.1
2017-Oct-16 17:30N 36°06' W 005°24'0 0.4
2017-Oct-16 16:59N 36°06' W 005°24'0 0.0
2017-Oct-16 16:29N 36°06' W 005°24'0 0.1
2017-Oct-16 15:56N 36°06' W 005°24'0 0.0
2017-Oct-16 15:29N 36°06' W 005°24'0 0.0
2017-Oct-16 14:47N 36°06' W 005°24'0 0.0
2017-Oct-16 13:59N 36°06' W 005°24'0 0.0
2017-Oct-16 13:29N 36°06' W 005°24'0 0.0
2017-Oct-16 12:53N 36°06' W 005°24'0 0.1
2017-Oct-16 12:08N 36°06' W 005°24'0 0.1
2017-Oct-16 11:59N 36°06' W 005°24'0 0.0
2017-Oct-16 11:29N 36°06' W 005°24'0 0.0
2017-Oct-16 10:56N 36°06' W 005°24'0 0.1
2017-Oct-16 10:26N 36°06' W 005°24'0 0.1
2017-Oct-16 09:53N 36°06' W 005°24'0 0.0
2017-Oct-16 09:14N 36°06' W 005°24'0 0.2
2017-Oct-16 08:59N 36°06' W 005°24'0 0.0
2017-Oct-16 08:23N 36°06' W 005°24'0 0.2
2017-Oct-16 07:59N 36°06' W 005°24'1 2.0
2017-Oct-16 07:30N 36°05' W 005°24'2 3.1
2017-Oct-16 06:43N 36°07' W 005°24'1 6.1
2017-Oct-16 06:29N 36°09' W 005°23'0 0.3
2017-Oct-16 05:25N 36°09' W 005°23'0 0.0
2017-Oct-16 04:55N 36°09' W 005°23'0 0.0
2017-Oct-16 04:16N 36°09' W 005°23'0 0.0
2017-Oct-16 03:55N 36°09' W 005°23'0 0.0
2017-Oct-16 03:28N 36°09' W 005°23'0 0.0
2017-Oct-16 02:49N 36°09' W 005°23'0 0.0
2017-Oct-16 02:25N 36°09' W 005°23'0 0.0
2017-Oct-16 01:58N 36°09' W 005°23'0 0.0
2017-Oct-16 01:28N 36°09' W 005°23'0 0.1
2017-Oct-16 00:55N 36°09' W 005°23'0 0.0
2017-Oct-16 00:22N 36°09' W 005°23'0 0.0
2017-Oct-15 23:58N 36°09' W 005°23'0 0.1
2017-Oct-15 23:25N 36°09' W 005°23'0 0.2
2017-Oct-15 22:37N 36°09' W 005°23'0 0.1
2017-Oct-15 22:28N 36°09' W 005°23'0 0.1
2017-Oct-15 21:58N 36°09' W 005°23'0 0.0
2017-Oct-15 21:22N 36°09' W 005°23'0 0.1
2017-Oct-15 20:52N 36°09' W 005°23'0 0.1
2017-Oct-15 20:22N 36°09' W 005°23'0 0.1
2017-Oct-15 19:52N 36°09' W 005°23'0 0.4
2017-Oct-15 19:28N 36°09' W 005°22'0 0.3
2017-Oct-15 18:58N 36°09' W 005°23'3 5.5
2017-Oct-15 18:21N 36°05' W 005°22'2 6.5
2017-Oct-15 18:01N 36°03' W 005°21'4 7.1
2017-Oct-15 17:30N 35°60' W 005°21'510.5
2017-Oct-15 17:01N 35°58' W 005°27'4712.7
2017-Oct-15 13:17N 35°54' W 006°25'411.8
2017-Oct-15 12:57N 35°55' W 006°30'511.5
2017-Oct-15 12:30N 35°57' W 006°36'711.3
2017-Oct-15 11:54N 35°58' W 006°44'511.3
2017-Oct-15 11:27N 35°59' W 006°50'511.3
2017-Oct-15 11:00N 35°60' W 006°57'611.5
2017-Oct-15 10:29N 36°01' W 007°04'611.8
2017-Oct-15 10:00N 36°02' W 007°11'612.0
2017-Oct-15 09:30N 36°04' W 007°18'612.3
2017-Oct-15 09:01N 36°06' W 007°25'612.2
2017-Oct-15 08:31N 36°07' W 007°32'612.0
2017-Oct-15 08:01N 36°09' W 007°40'612.1
2017-Oct-15 07:31N 36°10' W 007°47'612.1
2017-Oct-15 07:00N 36°12' W 007°54'612.0
2017-Oct-15 06:30N 36°14' W 008°01'612.0
2017-Oct-15 06:00N 36°15' W 008°08'612.2
2017-Oct-15 05:30N 36°16' W 008°16'612.3
2017-Oct-15 05:00N 36°18' W 008°23'612.3
2017-Oct-15 04:31N 36°19' W 008°31'612.3
2017-Oct-15 04:01N 36°21' W 008°38'612.6
2017-Oct-15 03:31N 36°22' W 008°46'612.8
2017-Oct-15 03:01N 36°24' W 008°53'713.1
2017-Oct-15 02:30N 36°26' W 009°01'713.5
2017-Oct-15 02:00N 36°27' W 009°09'713.2
2017-Oct-15 01:30N 36°29' W 009°17'612.7
2017-Oct-15 01:01N 36°33' W 009°24'612.7
2017-Oct-15 00:31N 36°38' W 009°29'612.6
2017-Oct-15 00:00N 36°42' W 009°34'612.4
2017-Oct-14 23:31N 36°48' W 009°38'612.7
2017-Oct-14 23:00N 36°54' W 009°40'612.7
2017-Oct-14 22:30N 37°00' W 009°42'612.7
2017-Oct-14 22:00N 37°06' W 009°44'612.7
2017-Oct-14 21:30N 37°12' W 009°46'712.8
2017-Oct-14 21:00N 37°19' W 009°48'612.4
2017-Oct-14 20:31N 37°25' W 009°50'612.4
2017-Oct-14 20:01N 37°31' W 009°51'612.4
2017-Oct-14 19:31N 37°37' W 009°53'612.6
2017-Oct-14 19:01N 37°43' W 009°54'612.7
2017-Oct-14 18:31N 37°49' W 009°56'713.1
2017-Oct-14 18:01N 37°56' W 009°58'713.3
2017-Oct-14 17:31N 38°02' W 009°60'713.3
2017-Oct-14 17:01N 38°08' W 010°02'613.0
2017-Oct-14 16:31N 38°15' W 010°04'613.0
2017-Oct-14 16:01N 38°21' W 010°06'713.2
2017-Oct-14 15:30N 38°27' W 010°08'713.1
2017-Oct-14 15:01N 38°34' W 010°10'612.9
2017-Oct-14 14:31N 38°40' W 010°11'612.3
2017-Oct-14 14:01N 38°46' W 010°12'612.3
2017-Oct-14 13:31N 38°52' W 010°12'713.2
2017-Oct-14 13:00N 38°59' W 010°12'713.5
2017-Oct-14 12:31N 39°06' W 010°12'713.3
2017-Oct-14 12:01N 39°12' W 010°12'713.2
2017-Oct-14 11:31N 39°19' W 010°12'713.2
2017-Oct-14 11:00N 39°26' W 010°11'712.7
2017-Oct-14 10:28N 39°33' W 010°11'612.8
2017-Oct-14 10:00N 39°38' W 010°11'1612.8
2017-Oct-14 08:47N 39°54' W 010°12'1412.7
2017-Oct-14 07:42N 40°08' W 010°11'1912.5
2017-Oct-14 06:10N 40°27' W 010°11'2512.7
2017-Oct-14 04:13N 40°52' W 010°11'2112.8
2017-Oct-14 02:36N 41°12' W 010°11'4612.8
2017-Oct-13 22:58N 41°59' W 010°12'1412.6
2017-Oct-13 21:52N 42°13' W 010°11'512.6
2017-Oct-13 21:31N 42°17' W 010°11'612.4
2017-Oct-13 21:01N 42°23' W 010°11'612.5
2017-Oct-13 20:29N 42°30' W 010°11'1413.0
2017-Oct-13 19:26N 42°44' W 010°11'512.8
2017-Oct-13 19:01N 42°49' W 010°11'612.8
2017-Oct-13 18:31N 42°55' W 010°11'612.8
2017-Oct-13 18:00N 43°02' W 010°11'29712.5
2017-Oct-12 18:13N 47°26' W 006°59'611.9
2017-Oct-12 17:45N 47°31' W 006°55'811.9
2017-Oct-12 17:02N 47°38' W 006°49'011.7
2017-Oct-12 17:00N 47°38' W 006°49'1312.2
2017-Oct-12 15:55N 47°50' W 006°39'2212.6
2017-Oct-12 14:11N 48°09' W 006°23'613.2
2017-Oct-12 13:45N 48°14' W 006°19'2013.1
2017-Oct-12 12:12N 48°32' W 006°04'1012.9
2017-Oct-12 11:26N 48°41' W 005°58'612.5
2017-Oct-12 10:56N 48°46' W 005°53'512.3
2017-Oct-12 10:30N 48°51' W 005°49'611.6
2017-Oct-12 10:00N 48°55' W 005°43'611.4
2017-Oct-12 09:31N 48°58' W 005°36'710.9
2017-Oct-12 08:51N 49°02' W 005°26'410.7
2017-Oct-12 08:31N 49°03' W 005°21'510.8
2017-Oct-12 08:01N 49°06' W 005°14'610.7
2017-Oct-12 07:29N 49°09' W 005°07'611.2
2017-Oct-12 06:59N 49°12' W 004°59'611.5
2017-Oct-12 06:26N 49°15' W 004°51'1312.0
2017-Oct-12 05:22N 49°21' W 004°34'612.7
2017-Oct-12 04:53N 49°24' W 004°26'2313.2
2017-Oct-12 03:07N 49°37' W 003°55'1412.9
2017-Oct-12 02:03N 49°44' W 003°38'112.4
2017-Oct-12 02:01N 49°45' W 003°37'712.3
2017-Oct-12 01:26N 49°48' W 003°27'511.9
2017-Oct-12 01:00N 49°51' W 003°21'611.5
2017-Oct-12 00:30N 49°53' W 003°13'611.1
2017-Oct-12 00:00N 49°56' W 003°05'510.9
2017-Oct-11 23:31N 49°58' W 002°57'510.7
2017-Oct-11 23:01N 49°59' W 002°49'510.6
2017-Oct-11 22:30N 50°01' W 002°41'29110.7
2017-Oct-10 19:16N 53°05' E 003°21'410.3
2017-Oct-10 18:54N 53°08' E 003°23'  
Track history (hours):
 
Tides and Currents Weather Stations Pressure Air Temp Water Temp Dewpoint Dewpoint Depression Visibility Wind Speed Wind Dir Waves Ship Positions

Iris Victoria

Last reported at 2017-Oct-20 04:31 UTC. Time now 2017-Nov-22 12:59 UTC.
Position N 36°01' E 015°33'.
Warning: this ship's position is 33 days out of date.

Length 228 m; draft 13.3 m.

Type: Tanker. MMSI: 538003876.

Date/timePositionNaut miles runAvg speedWind from/ knotsBaromVisibWave heightAir tempDewpointWater temp
2017-Oct-20 04:31N 36°01' E 015°33'010.1
2017-Oct-20 04:30N 36°02' E 015°33'510.6
2017-Oct-20 04:00N 36°03' E 015°26'510.8
2017-Oct-20 03:30N 36°04' E 015°20'610.9
2017-Oct-20 02:55N 36°05' E 015°12'1911.0
2017-Oct-20 01:13N 36°10' E 014°50'210.9
2017-Oct-20 01:00N 36°11' E 014°47'510.8
2017-Oct-20 00:30N 36°12' E 014°40'510.9
2017-Oct-20 00:00N 36°13' E 014°34'610.9
2017-Oct-19 23:30N 36°15' E 014°27'510.9
2017-Oct-19 23:00N 36°16' E 014°21'610.8
2017-Oct-19 22:29N 36°17' E 014°14'510.7
2017-Oct-19 21:59N 36°19' E 014°07'510.7
2017-Oct-19 21:30N 36°20' E 014°01'510.6
2017-Oct-19 21:00N 36°22' E 013°55'510.6
2017-Oct-19 20:30N 36°24' E 013°49'510.6
2017-Oct-19 19:59N 36°26' E 013°43'610.4
2017-Oct-19 19:28N 36°28' E 013°37'25512.1
2017-Oct-18 22:18N 37°40' E 008°30'413.1
2017-Oct-18 22:00N 37°40' E 008°25'812.9
2017-Oct-18 21:21N 37°40' E 008°14'712.9
2017-Oct-18 20:46N 37°40' E 008°05'313.0
2017-Oct-18 20:30N 37°40' E 008°01'15712.9
2017-Oct-18 08:23N 37°34' E 004°43'1812.9
2017-Oct-18 07:01N 37°33' E 004°21'013.2
2017-Oct-18 07:00N 37°33' E 004°21'713.2
2017-Oct-18 06:29N 37°32' E 004°12'713.2
2017-Oct-18 06:00N 37°32' E 004°04'713.2
2017-Oct-18 05:29N 37°31' E 003°56'613.1
2017-Oct-18 05:00N 37°31' E 003°48'713.3
2017-Oct-18 04:30N 37°31' E 003°39'3513.1
2017-Oct-18 01:48N 37°30' E 002°55'713.2
2017-Oct-18 01:18N 37°30' E 002°46'413.1
2017-Oct-18 01:00N 37°30' E 002°42'713.1
2017-Oct-18 00:30N 37°28' E 002°34'612.8
2017-Oct-18 00:00N 37°26' E 002°26'1312.8
2017-Oct-17 23:01N 37°21' E 002°11'012.8
2017-Oct-17 23:00N 37°21' E 002°11'1912.9
2017-Oct-17 21:33N 37°15' E 001°48'113.2
2017-Oct-17 21:30N 37°15' E 001°48'713.2
2017-Oct-17 21:00N 37°13' E 001°40'713.2
2017-Oct-17 20:30N 37°11' E 001°32'713.0
2017-Oct-17 20:00N 37°09' E 001°24'812.8
2017-Oct-17 19:25N 37°06' E 001°15'512.7
2017-Oct-17 19:00N 37°05' E 001°09'812.8
2017-Oct-17 18:24N 37°02' E 001°00'912.8
2017-Oct-17 17:41N 36°59' E 000°49'212.7
2017-Oct-17 17:30N 36°59' E 000°46'2112.9
2017-Oct-17 15:54N 36°53' E 000°21'513.2
2017-Oct-17 15:29N 36°52' E 000°15'813.2
2017-Oct-17 14:54N 36°48' E 000°06'25712.9
2017-Oct-16 18:59N 36°00' W 005°07'612.2
2017-Oct-16 18:30N 36°01' W 005°14'611.9
2017-Oct-16 18:00N 36°03' W 005°21'3 7.1
2017-Oct-16 17:30N 36°06' W 005°24'0 0.4
2017-Oct-16 16:59N 36°06' W 005°24'0 0.0
2017-Oct-16 16:29N 36°06' W 005°24'0 0.1
2017-Oct-16 15:56N 36°06' W 005°24'0 0.0
2017-Oct-16 15:29N 36°06' W 005°24'0 0.0
2017-Oct-16 14:47N 36°06' W 005°24'0 0.0
2017-Oct-16 13:59N 36°06' W 005°24'0 0.0
2017-Oct-16 13:29N 36°06' W 005°24'0 0.0
2017-Oct-16 12:53N 36°06' W 005°24'0 0.1
2017-Oct-16 12:08N 36°06' W 005°24'0 0.1
2017-Oct-16 11:59N 36°06' W 005°24'0 0.0
2017-Oct-16 11:29N 36°06' W 005°24'0 0.0
2017-Oct-16 10:56N 36°06' W 005°24'0 0.1
2017-Oct-16 10:26N 36°06' W 005°24'0 0.1
2017-Oct-16 09:53N 36°06' W 005°24'0 0.0
2017-Oct-16 09:14N 36°06' W 005°24'0 0.2
2017-Oct-16 08:59N 36°06' W 005°24'0 0.0
2017-Oct-16 08:23N 36°06' W 005°24'0 0.2
2017-Oct-16 07:59N 36°06' W 005°24'1 2.0
2017-Oct-16 07:30N 36°05' W 005°24'2 3.1
2017-Oct-16 06:43N 36°07' W 005°24'1 6.1
2017-Oct-16 06:29N 36°09' W 005°23'0 0.3
2017-Oct-16 05:25N 36°09' W 005°23'0 0.0
2017-Oct-16 04:55N 36°09' W 005°23'0 0.0
2017-Oct-16 04:16N 36°09' W 005°23'0 0.0
2017-Oct-16 03:55N 36°09' W 005°23'0 0.0
2017-Oct-16 03:28N 36°09' W 005°23'0 0.0
2017-Oct-16 02:49N 36°09' W 005°23'0 0.0
2017-Oct-16 02:25N 36°09' W 005°23'0 0.0
2017-Oct-16 01:58N 36°09' W 005°23'0 0.0
2017-Oct-16 01:28N 36°09' W 005°23'0 0.1
2017-Oct-16 00:55N 36°09' W 005°23'0 0.0
2017-Oct-16 00:22N 36°09' W 005°23'0 0.0
2017-Oct-15 23:58N 36°09' W 005°23'0 0.1
2017-Oct-15 23:25N 36°09' W 005°23'0 0.2
2017-Oct-15 22:37N 36°09' W 005°23'0 0.1
2017-Oct-15 22:28N 36°09' W 005°23'0 0.1
2017-Oct-15 21:58N 36°09' W 005°23'0 0.0
2017-Oct-15 21:22N 36°09' W 005°23'0 0.1
2017-Oct-15 20:52N 36°09' W 005°23'0 0.1
2017-Oct-15 20:22N 36°09' W 005°23'0 0.1
2017-Oct-15 19:52N 36°09' W 005°23'0 0.4
2017-Oct-15 19:28N 36°09' W 005°22'0 0.3
2017-Oct-15 18:58N 36°09' W 005°23'3 5.5
2017-Oct-15 18:21N 36°05' W 005°22'2 6.5
2017-Oct-15 18:01N 36°03' W 005°21'4 7.1
2017-Oct-15 17:30N 35°60' W 005°21'510.5
2017-Oct-15 17:01N 35°58' W 005°27'4712.7
2017-Oct-15 13:17N 35°54' W 006°25'411.8
2017-Oct-15 12:57N 35°55' W 006°30'511.5
2017-Oct-15 12:30N 35°57' W 006°36'711.3
2017-Oct-15 11:54N 35°58' W 006°44'511.3
2017-Oct-15 11:27N 35°59' W 006°50'511.3
2017-Oct-15 11:00N 35°60' W 006°57'611.5
2017-Oct-15 10:29N 36°01' W 007°04'611.8
2017-Oct-15 10:00N 36°02' W 007°11'612.0
2017-Oct-15 09:30N 36°04' W 007°18'612.3
2017-Oct-15 09:01N 36°06' W 007°25'612.2
2017-Oct-15 08:31N 36°07' W 007°32'612.0
2017-Oct-15 08:01N 36°09' W 007°40'612.1
2017-Oct-15 07:31N 36°10' W 007°47'612.1
2017-Oct-15 07:00N 36°12' W 007°54'612.0
2017-Oct-15 06:30N 36°14' W 008°01'612.0
2017-Oct-15 06:00N 36°15' W 008°08'612.2
2017-Oct-15 05:30N 36°16' W 008°16'612.3
2017-Oct-15 05:00N 36°18' W 008°23'612.3
2017-Oct-15 04:31N 36°19' W 008°31'612.3
2017-Oct-15 04:01N 36°21' W 008°38'612.6
2017-Oct-15 03:31N 36°22' W 008°46'612.8
2017-Oct-15 03:01N 36°24' W 008°53'713.1
2017-Oct-15 02:30N 36°26' W 009°01'713.5
2017-Oct-15 02:00N 36°27' W 009°09'713.2
2017-Oct-15 01:30N 36°29' W 009°17'612.7
2017-Oct-15 01:01N 36°33' W 009°24'612.7
2017-Oct-15 00:31N 36°38' W 009°29'612.6
2017-Oct-15 00:00N 36°42' W 009°34'612.4
2017-Oct-14 23:31N 36°48' W 009°38'612.7
2017-Oct-14 23:00N 36°54' W 009°40'612.7
2017-Oct-14 22:30N 37°00' W 009°42'612.7
2017-Oct-14 22:00N 37°06' W 009°44'612.7
2017-Oct-14 21:30N 37°12' W 009°46'712.8
2017-Oct-14 21:00N 37°19' W 009°48'612.4
2017-Oct-14 20:31N 37°25' W 009°50'612.4
2017-Oct-14 20:01N 37°31' W 009°51'612.4
2017-Oct-14 19:31N 37°37' W 009°53'612.6
2017-Oct-14 19:01N 37°43' W 009°54'612.7
2017-Oct-14 18:31N 37°49' W 009°56'713.1
2017-Oct-14 18:01N 37°56' W 009°58'713.3
2017-Oct-14 17:31N 38°02' W 009°60'713.3
2017-Oct-14 17:01N 38°08' W 010°02'613.0
2017-Oct-14 16:31N 38°15' W 010°04'613.0
2017-Oct-14 16:01N 38°21' W 010°06'713.2
2017-Oct-14 15:30N 38°27' W 010°08'713.1
2017-Oct-14 15:01N 38°34' W 010°10'612.9
2017-Oct-14 14:31N 38°40' W 010°11'612.3
2017-Oct-14 14:01N 38°46' W 010°12'612.3
2017-Oct-14 13:31N 38°52' W 010°12'713.2
2017-Oct-14 13:00N 38°59' W 010°12'713.5
2017-Oct-14 12:31N 39°06' W 010°12'713.3
2017-Oct-14 12:01N 39°12' W 010°12'713.2
2017-Oct-14 11:31N 39°19' W 010°12'713.2
2017-Oct-14 11:00N 39°26' W 010°11'712.7
2017-Oct-14 10:28N 39°33' W 010°11'612.8
2017-Oct-14 10:00N 39°38' W 010°11'1612.8
2017-Oct-14 08:47N 39°54' W 010°12'1412.7
2017-Oct-14 07:42N 40°08' W 010°11'1912.5
2017-Oct-14 06:10N 40°27' W 010°11'2512.7
2017-Oct-14 04:13N 40°52' W 010°11'2112.8
2017-Oct-14 02:36N 41°12' W 010°11'4612.8
2017-Oct-13 22:58N 41°59' W 010°12'1412.6
2017-Oct-13 21:52N 42°13' W 010°11'512.6
2017-Oct-13 21:31N 42°17' W 010°11'612.4
2017-Oct-13 21:01N 42°23' W 010°11'612.5
2017-Oct-13 20:29N 42°30' W 010°11'1413.0
2017-Oct-13 19:26N 42°44' W 010°11'512.8
2017-Oct-13 19:01N 42°49' W 010°11'612.8
2017-Oct-13 18:31N 42°55' W 010°11'612.8
2017-Oct-13 18:00N 43°02' W 010°11'29712.5
2017-Oct-12 18:13N 47°26' W 006°59'611.9
2017-Oct-12 17:45N 47°31' W 006°55'811.9
2017-Oct-12 17:02N 47°38' W 006°49'011.7
2017-Oct-12 17:00N 47°38' W 006°49'1312.2
2017-Oct-12 15:55N 47°50' W 006°39'2212.6
2017-Oct-12 14:11N 48°09' W 006°23'613.2
2017-Oct-12 13:45N 48°14' W 006°19'2013.1
2017-Oct-12 12:12N 48°32' W 006°04'1012.9
2017-Oct-12 11:26N 48°41' W 005°58'612.5
2017-Oct-12 10:56N 48°46' W 005°53'512.3
2017-Oct-12 10:30N 48°51' W 005°49'611.6
2017-Oct-12 10:00N 48°55' W 005°43'611.4
2017-Oct-12 09:31N 48°58' W 005°36'710.9
2017-Oct-12 08:51N 49°02' W 005°26'410.7
2017-Oct-12 08:31N 49°03' W 005°21'510.8
2017-Oct-12 08:01N 49°06' W 005°14'610.7
2017-Oct-12 07:29N 49°09' W 005°07'611.2
2017-Oct-12 06:59N 49°12' W 004°59'611.5
2017-Oct-12 06:26N 49°15' W 004°51'1312.0
2017-Oct-12 05:22N 49°21' W 004°34'612.7
2017-Oct-12 04:53N 49°24' W 004°26'2313.2
2017-Oct-12 03:07N 49°37' W 003°55'1412.9
2017-Oct-12 02:03N 49°44' W 003°38'112.4
2017-Oct-12 02:01N 49°45' W 003°37'712.3
2017-Oct-12 01:26N 49°48' W 003°27'511.9
2017-Oct-12 01:00N 49°51' W 003°21'611.5
2017-Oct-12 00:30N 49°53' W 003°13'611.1
2017-Oct-12 00:00N 49°56' W 003°05'510.9
2017-Oct-11 23:31N 49°58' W 002°57'510.7
2017-Oct-11 23:01N 49°59' W 002°49'510.6
2017-Oct-11 22:30N 50°01' W 002°41'29110.7
2017-Oct-10 19:16N 53°05' E 003°21'410.3
2017-Oct-10 18:54N 53°08' E 003°23'  

Dump ship's entire track history